Mary Ann — WCY5683 — position and weather

sailwx.info

Track history (hours):
 
Tides and Currents Weather Stations Pressure Air Temp Water Temp Dewpoint Dewpoint Depression Visibility Wind Speed Wind Dir Waves Ship Positions

Mary Ann

Owner: GETZ, TIMOTHY M, SEAVILLE, NJ. More information available from US FCC via Universal Licensing System and Coast Guard Vessel Documentation Center.

Last reported at 2015-Sep-01 03:21 UTC. Time now 2015-Sep-01 14:09 UTC.
Position N 39°49' W 071°30'.

Length 22 m.

Type: Fishing. MMSI: 338382000.

Date/timePositionNaut miles runAvg speedWind from/ knotsBaromVisibWave heightAir tempDewpointWater temp
2015-Sep-01 03:21N 39°49' W 071°30'11 3.4
2015-Sep-01 00:14N 39°43' W 071°41'23 7.5
2015-Aug-31 21:07N 39°26' W 072°01'1 1.1
2015-Aug-31 20:33N 39°25' W 072°02'  
2015-Aug-26 17:30N 39°26' W 072°23'10 7.6
2015-Aug-26 16:13N 39°28' W 072°10'2 3.1
2015-Aug-26 15:32N 39°29' W 072°08'4 3.8
2015-Aug-26 14:29N 39°30' W 072°04'12 4.8
2015-Aug-26 12:03N 39°34' W 071°49'2 4.8
2015-Aug-26 11:33N 39°36' W 071°47'4 4.3
2015-Aug-26 10:33N 39°39' W 071°43'7 3.4
2015-Aug-26 08:29N 39°42' W 071°35'1 1.1
2015-Aug-26 07:33N 39°42' W 071°36'1 1.0
2015-Aug-26 06:16N 39°42' W 071°38'22 1.2
2015-Aug-25 12:33N 39°30' W 072°02'5 4.8
2015-Aug-25 11:32N 39°32' W 071°56'4 4.2
2015-Aug-25 10:33N 39°35' W 071°52'3 2.9
2015-Aug-25 09:33N 39°36' W 071°49'0 0.4
2015-Aug-25 08:28N 39°37' W 071°49'1 0.8
2015-Aug-25 07:28N 39°37' W 071°50'1 0.6
2015-Aug-25 06:28N 39°36' W 071°51'1 0.5
2015-Aug-25 05:22N 39°36' W 071°51'0 0.5
2015-Aug-25 04:28N 39°35' W 071°51'0 0.5
2015-Aug-25 03:31N 39°35' W 071°51'1 0.5
2015-Aug-25 02:31N 39°34' W 071°51'1 0.5
2015-Aug-25 01:25N 39°34' W 071°51'6 6.0
2015-Aug-25 00:21N 39°30' W 071°57'7 7.3
2015-Aug-24 23:26N 39°28' W 072°06'5 5.5
2015-Aug-24 22:32N 39°26' W 072°11'  
2015-Aug-22 12:04N 39°19' W 072°05'5 5.7
2015-Aug-22 11:11N 39°23' W 072°01'4 5.5
2015-Aug-22 10:28N 39°25' W 071°57'2 2.1
2015-Aug-22 09:31N 39°26' W 071°55'1 1.1
2015-Aug-22 08:18N 39°28' W 071°54'1 0.4
2015-Aug-22 06:27N 39°28' W 071°53'0 0.3
2015-Aug-22 05:31N 39°28' W 071°53'  
Track history (hours):
 
Tides and Currents Weather Stations Pressure Air Temp Water Temp Dewpoint Dewpoint Depression Visibility Wind Speed Wind Dir Waves Ship Positions

Mary Ann

Owner: GETZ, TIMOTHY M, SEAVILLE, NJ. More information available from US FCC via Universal Licensing System and Coast Guard Vessel Documentation Center.

Last reported at 2015-Sep-01 03:21 UTC. Time now 2015-Sep-01 14:09 UTC.
Position N 39°49' W 071°30'.

Length 22 m.

Type: Fishing. MMSI: 338382000.

Date/timePositionNaut miles runAvg speedWind from/ knotsBaromVisibWave heightAir tempDewpointWater temp
2015-Sep-01 03:21N 39°49' W 071°30'11 3.4
2015-Sep-01 00:14N 39°43' W 071°41'23 7.5
2015-Aug-31 21:07N 39°26' W 072°01'1 1.1
2015-Aug-31 20:33N 39°25' W 072°02'  
2015-Aug-26 17:30N 39°26' W 072°23'10 7.6
2015-Aug-26 16:13N 39°28' W 072°10'2 3.1
2015-Aug-26 15:32N 39°29' W 072°08'4 3.8
2015-Aug-26 14:29N 39°30' W 072°04'12 4.8
2015-Aug-26 12:03N 39°34' W 071°49'2 4.8
2015-Aug-26 11:33N 39°36' W 071°47'4 4.3
2015-Aug-26 10:33N 39°39' W 071°43'7 3.4
2015-Aug-26 08:29N 39°42' W 071°35'1 1.1
2015-Aug-26 07:33N 39°42' W 071°36'1 1.0
2015-Aug-26 06:16N 39°42' W 071°38'22 1.2
2015-Aug-25 12:33N 39°30' W 072°02'5 4.8
2015-Aug-25 11:32N 39°32' W 071°56'4 4.2
2015-Aug-25 10:33N 39°35' W 071°52'3 2.9
2015-Aug-25 09:33N 39°36' W 071°49'0 0.4
2015-Aug-25 08:28N 39°37' W 071°49'1 0.8
2015-Aug-25 07:28N 39°37' W 071°50'1 0.6
2015-Aug-25 06:28N 39°36' W 071°51'1 0.5
2015-Aug-25 05:22N 39°36' W 071°51'0 0.5
2015-Aug-25 04:28N 39°35' W 071°51'0 0.5
2015-Aug-25 03:31N 39°35' W 071°51'1 0.5
2015-Aug-25 02:31N 39°34' W 071°51'1 0.5
2015-Aug-25 01:25N 39°34' W 071°51'6 6.0
2015-Aug-25 00:21N 39°30' W 071°57'7 7.3
2015-Aug-24 23:26N 39°28' W 072°06'5 5.5
2015-Aug-24 22:32N 39°26' W 072°11'  
2015-Aug-22 12:04N 39°19' W 072°05'5 5.7
2015-Aug-22 11:11N 39°23' W 072°01'4 5.5
2015-Aug-22 10:28N 39°25' W 071°57'2 2.1
2015-Aug-22 09:31N 39°26' W 071°55'1 1.1
2015-Aug-22 08:18N 39°28' W 071°54'1 0.4
2015-Aug-22 06:27N 39°28' W 071°53'0 0.3
2015-Aug-22 05:31N 39°28' W 071°53'  

Dump ship's entire track history